Time;durP1;ratioP1;P1;durP2;ratioP2;P2;SDS_P1;SDS_P2;PMS_P1;PMS_P2;Temp;Humidity;BMP_temperature;BMP_pressure;BME280_temperature;BME280_humidity;BME280_pressure;Samples;Min_cycle;Max_cycle;Signal;HPM_P1;HPM_P2
2021/09/24 00:00:19;;;;;;;6.05;5.18;;;;;21.20;100593.00;;;;2070489;28;20213;-56
2021/09/24 00:01:20;;;;;;;6.37;5.50;;;;;21.20;100595.00;;;;2062871;28;20706;-56
2021/09/24 00:02:20;;;;;;;6.17;5.33;;;;;21.20;100593.00;;;;2062347;28;21152;-56
2021/09/24 00:03:21;;;;;;;5.33;4.83;;;;;21.20;100597.00;;;;2062169;28;20214;-56
2021/09/24 00:04:21;;;;;;;5.97;5.30;;;;;21.20;100593.00;;;;2062366;28;20218;-56
2021/09/24 00:05:22;;;;;;;5.37;4.87;;;;;21.20;100581.00;;;;2066896;28;20245;-56
2021/09/24 00:06:22;;;;;;;5.57;5.07;;;;;21.20;100592.00;;;;2059843;28;20214;-56
2021/09/24 00:07:22;;;;;;;5.60;5.07;;;;;21.20;100586.00;;;;2068422;28;20365;-56
2021/09/24 00:08:23;;;;;;;6.00;5.03;;;;;21.20;100577.00;;;;2069095;28;20671;-56
2021/09/24 00:09:23;;;;;;;7.37;5.50;;;;;21.20;100586.00;;;;2069571;28;20563;-56
2021/09/24 00:10:23;;;;;;;5.33;4.83;;;;;21.20;100590.00;;;;2070214;28;20218;-55
2021/09/24 00:11:24;;;;;;;6.30;5.17;;;;;21.20;100578.00;;;;2070158;28;20233;-56
2021/09/24 00:12:24;;;;;;;6.57;5.50;;;;;21.20;100586.00;;;;2070005;28;20221;-58
2021/09/24 00:13:24;;;;;;;5.77;4.90;;;;;21.20;100583.00;;;;2070445;28;20214;-57
2021/09/24 00:14:25;;;;;;;5.70;5.10;;;;;21.20;100583.00;;;;2070408;28;20368;-57
2021/09/24 00:15:25;;;;;;;6.63;4.80;;;;;21.20;100587.00;;;;2070262;28;20237;-57
2021/09/24 00:16:25;;;;;;;5.27;4.77;;;;;21.20;100590.00;;;;2070386;28;20230;-56
2021/09/24 00:17:26;;;;;;;4.93;4.27;;;;;21.20;100577.00;;;;2070522;28;20207;-56
2021/09/24 00:18:26;;;;;;;6.37;5.63;;;;;21.20;100580.00;;;;2063165;28;20214;-57
2021/09/24 00:19:27;;;;;;;5.73;5.10;;;;;21.20;100579.00;;;;2060283;28;20215;-57
2021/09/24 00:20:27;;;;;;;5.33;4.43;;;;;21.20;100576.00;;;;2061611;28;20211;-56
2021/09/24 00:21:28;;;;;;;6.33;5.27;;;;;21.20;100588.00;;;;2062389;28;20223;-55
2021/09/24 00:22:28;;;;;;;7.40;5.00;;;;;21.20;100582.00;;;;2067591;28;20680;-56
2021/09/24 00:23:28;;;;;;;7.67;5.30;;;;;21.20;100582.00;;;;2070222;28;20248;-56
2021/09/24 00:24:29;;;;;;;7.03;5.23;;;;;21.20;100582.00;;;;2070117;28;20221;-56
2021/09/24 00:25:29;;;;;;;5.23;4.40;;;;;21.20;100590.00;;;;2070391;28;20297;-57
2021/09/24 00:26:30;;;;;;;5.83;5.00;;;;;21.20;100586.00;;;;2070143;28;20225;-56
2021/09/24 00:27:30;;;;;;;6.90;5.43;;;;;21.20;100579.00;;;;2069731;28;20214;-56
2021/09/24 00:28:31;;;;;;;5.23;4.73;;;;;21.20;100583.00;;;;2069561;28;20696;-56
2021/09/24 00:29:31;;;;;;;5.67;4.77;;;;;21.20;100588.00;;;;2065094;28;20206;-56
2021/09/24 00:30:32;;;;;;;6.87;6.17;;;;;21.20;100577.00;;;;2061768;28;20289;-56
2021/09/24 00:31:32;;;;;;;5.73;4.57;;;;;21.20;100577.00;;;;2062128;28;20230;-55
2021/09/24 00:32:33;;;;;;;5.40;4.90;;;;;21.20;100583.00;;;;2062270;28;20242;-56
2021/09/24 00:33:33;;;;;;;5.43;4.87;;;;;21.20;100588.00;;;;2062354;28;20302;-56
2021/09/24 00:34:33;;;;;;;5.57;5.07;;;;;21.20;100575.00;;;;2062274;28;20207;-56
2021/09/24 00:35:34;;;;;;;6.63;5.53;;;;;21.20;100576.00;;;;2061818;28;20308;-56
2021/09/24 00:36:34;;;;;;;6.10;5.20;;;;;21.20;100571.00;;;;2069762;28;20585;-56
2021/09/24 00:37:35;;;;;;;6.57;4.97;;;;;21.20;100578.00;;;;2070105;28;20217;-56
2021/09/24 00:38:38;;;;;;;6.13;5.53;;;;;21.20;100577.00;;;;2068620;28;20571;-56
2021/09/24 00:39:38;;;;;;;5.95;5.00;;;;;21.20;100573.00;;;;2067138;28;20221;-56
2021/09/24 00:40:39;;;;;;;4.90;4.40;;;;;21.20;100568.00;;;;2070294;28;20305;-56
2021/09/24 00:41:39;;;;;;;7.10;5.33;;;;;21.20;100573.00;;;;2070402;28;20224;-56
2021/09/24 00:42:39;;;;;;;5.30;4.80;;;;;21.20;100567.00;;;;2068692;28;20220;-56
2021/09/24 00:43:40;;;;;;;6.00;5.10;;;;;21.20;100571.00;;;;2070354;28;20702;-56
2021/09/24 00:44:47;;;;;;;6.43;5.77;;;;;21.20;100566.00;;;;2070100;28;20207;-56
2021/09/24 00:45:47;;;;;;;5.30;4.70;;;;;21.20;100564.00;;;;2070350;28;20203;-55
2021/09/24 00:46:48;;;;;;;5.90;5.23;;;;;21.20;100569.00;;;;2070044;28;20206;-56
2021/09/24 00:47:48;;;;;;;4.80;4.37;;;;;21.20;100565.00;;;;2069958;28;20214;-55
2021/09/24 00:48:49;;;;;;;5.27;4.50;;;;;21.20;100571.00;;;;2069320;28;20230;-56
2021/09/24 00:49:49;;;;;;;6.47;5.77;;;;;21.20;100567.00;;;;2070276;28;20226;-56
2021/09/24 00:50:49;;;;;;;5.83;5.33;;;;;21.20;100562.00;;;;2070193;28;20214;-56
2021/09/24 00:51:50;;;;;;;5.70;5.10;;;;;21.20;100558.00;;;;2070406;28;20226;-56
2021/09/24 00:52:52;;;;;;;5.03;4.40;;;;;21.20;100565.00;;;;2070337;28;20709;-56
2021/09/24 00:53:53;;;;;;;5.40;4.90;;;;;21.20;100570.00;;;;2069996;28;20273;-56
2021/09/24 00:54:53;;;;;;;5.77;5.27;;;;;21.20;100562.00;;;;2069563;28;20301;-56
2021/09/24 00:55:53;;;;;;;6.17;5.30;;;;;21.20;100556.00;;;;2061423;28;20285;-56
2021/09/24 00:56:54;;;;;;;5.40;4.90;;;;;21.20;100559.00;;;;2069628;28;20214;-56
2021/09/24 00:57:54;;;;;;;6.30;5.80;;;;;21.20;100553.00;;;;2070301;28;20218;-56
2021/09/24 00:58:55;;;;;;;5.50;5.10;;;;;21.20;100558.00;;;;2068234;28;20218;-56
2021/09/24 00:59:55;;;;;;;6.07;5.27;;;;;21.20;100557.00;;;;2065693;28;20314;-56
2021/09/24 01:00:55;;;;;;;5.37;4.87;;;;;21.20;100565.00;;;;2061977;28;20227;-56
2021/09/24 01:01:56;;;;;;;4.93;4.20;;;;;21.20;100553.00;;;;2061686;28;20600;-56
2021/09/24 01:02:57;;;;;;;5.67;5.17;;;;;21.20;100559.00;;;;2062212;28;20248;-56
2021/09/24 01:03:57;;;;;;;6.70;5.30;;;;;21.20;100548.00;;;;2062348;28;20459;-55
2021/09/24 01:04:57;;;;;;;5.70;5.20;;;;;21.20;100542.00;;;;2061878;28;20215;-56
2021/09/24 01:05:58;;;;;;;6.00;4.77;;;;;21.20;100559.00;;;;2054352;28;20659;-56
2021/09/24 01:06:58;;;;;;;5.00;4.50;;;;;21.20;100556.00;;;;2063019;28;20596;-56
2021/09/24 01:07:58;;;;;;;5.17;4.67;;;;;21.20;100548.00;;;;2063035;28;20215;-56
2021/09/24 01:08:58;;;;;;;5.40;4.90;;;;;21.20;100553.00;;;;2061496;28;20302;-56
2021/09/24 01:09:59;;;;;;;7.37;6.03;;;;;21.20;100548.00;;;;2063573;28;20219;-56
2021/09/24 01:10:59;;;;;;;5.37;4.87;;;;;21.20;100556.00;;;;2063242;28;20223;-56
2021/09/24 01:12:00;;;;;;;5.43;4.53;;;;;21.20;100554.00;;;;2063525;28;20223;-56
2021/09/24 01:13:01;;;;;;;5.63;5.13;;;;;21.20;100547.00;;;;2063578;28;20281;-56
2021/09/24 01:14:01;;;;;;;5.40;4.80;;;;;21.20;100553.00;;;;2063536;28;20272;-56
2021/09/24 01:15:04;;;;;;;4.87;4.40;;;;;21.20;100551.00;;;;2063575;28;20269;-55
2021/09/24 01:16:05;;;;;;;5.75;4.43;;;;;21.20;100554.00;;;;2053246;28;20218;-57
2021/09/24 01:17:06;;;;;;;6.55;4.78;;;;;21.20;100553.00;;;;2062781;28;20219;-56
2021/09/24 01:18:06;;;;;;;5.60;5.00;;;;;21.20;100556.00;;;;2062954;28;20290;-56
2021/09/24 01:19:07;;;;;;;5.30;4.80;;;;;21.20;100549.00;;;;2062152;28;20221;-56
2021/09/24 01:20:12;;;;;;;5.30;4.90;;;;;21.20;100552.00;;;;2063159;28;20778;-56
2021/09/24 01:21:12;;;;;;;5.07;4.57;;;;;21.20;100548.00;;;;2063622;28;20237;-56
2021/09/24 01:22:13;;;;;;;5.83;4.77;;;;;21.20;100545.00;;;;2063635;28;20667;-56
2021/09/24 01:23:13;;;;;;;5.60;5.00;;;;;21.20;100548.00;;;;2063424;28;20211;-56
2021/09/24 01:24:13;;;;;;;6.40;5.80;;;;;21.20;100550.00;;;;2063726;28;20234;-56
2021/09/24 01:25:14;;;;;;;4.57;4.17;;;;;21.20;100554.00;;;;2063061;28;20234;-56
2021/09/24 01:26:15;;;;;;;5.97;4.67;;;;;21.20;100556.00;;;;2062815;28;20636;-56
2021/09/24 01:27:15;;;;;;;4.77;4.37;;;;;21.20;100547.00;;;;2063448;28;20222;-56
2021/09/24 01:28:15;;;;;;;5.93;4.63;;;;;21.20;100553.00;;;;2063261;28;20590;-55
2021/09/24 01:29:16;;;;;;;5.00;4.20;;;;;21.20;100541.00;;;;2065019;28;20253;-56
2021/09/24 01:30:17;;;;;;;5.23;4.73;;;;;21.20;100548.00;;;;2070903;28;20217;-56
2021/09/24 01:31:19;;;;;;;5.50;4.47;;;;;21.20;100545.00;;;;2071470;28;20218;-56
2021/09/24 01:32:19;;;;;;;6.63;5.70;;;;;21.00;100550.00;;;;2071472;28;20932;-56
2021/09/24 01:33:20;;;;;;;5.50;5.00;;;;;21.20;100553.00;;;;2071355;28;20229;-56
2021/09/24 01:34:20;;;;;;;4.90;4.40;;;;;21.20;100554.00;;;;2067572;28;20301;-56
2021/09/24 01:35:20;;;;;;;5.27;4.80;;;;;21.20;100547.00;;;;2063313;28;20684;-56
2021/09/24 01:36:21;;;;;;;5.10;4.60;;;;;21.20;100554.00;;;;2062599;28;20652;-56
2021/09/24 01:37:22;;;;;;;6.60;5.77;;;;;21.20;100549.00;;;;2062936;28;20210;-56
2021/09/24 01:38:22;;;;;;;5.53;4.60;;;;;21.20;100553.00;;;;2063140;28;20219;-56
2021/09/24 01:39:22;;;;;;;6.77;5.77;;;;;21.20;100539.00;;;;2060775;28;20665;-56
2021/09/24 01:40:23;;;;;;;6.63;5.27;;;;;21.20;100541.00;;;;2062340;28;20203;-56
2021/09/24 01:41:23;;;;;;;5.93;5.43;;;;;21.20;100536.00;;;;2062985;28;20688;-56
2021/09/24 01:42:23;;;;;;;4.77;4.07;;;;;21.20;100549.00;;;;2062309;28;20219;-56
2021/09/24 01:43:24;;;;;;;4.53;4.13;;;;;21.20;100541.00;;;;2063045;28;20222;-55
2021/09/24 01:44:24;;;;;;;5.50;5.00;;;;;21.20;100542.00;;;;2062932;28;20207;-56
2021/09/24 01:45:24;;;;;;;6.80;5.37;;;;;21.20;100546.00;;;;2062754;28;20303;-56
2021/09/24 01:46:25;;;;;;;5.77;4.77;;;;;21.20;100549.00;;;;2069482;28;20230;-56
2021/09/24 01:47:25;;;;;;;6.10;4.90;;;;;21.20;100545.00;;;;2071020;28;20210;-56
2021/09/24 01:48:26;;;;;;;5.93;4.70;;;;;21.20;100545.00;;;;2070149;28;20218;-56
2021/09/24 01:49:26;;;;;;;5.40;4.90;;;;;21.20;100543.00;;;;2068928;28;20206;-56
2021/09/24 01:50:26;;;;;;;5.27;4.77;;;;;21.10;100544.00;;;;2070536;28;20590;-56
2021/09/24 01:51:27;;;;;;;5.13;4.63;;;;;21.10;100532.00;;;;2071176;28;20210;-56
2021/09/24 01:52:28;;;;;;;5.50;5.00;;;;;21.20;100538.00;;;;2071357;28;20257;-56
2021/09/24 01:53:28;;;;;;;6.47;5.40;;;;;21.20;100540.00;;;;2070739;28;20751;-55
2021/09/24 01:54:29;;;;;;;4.87;4.37;;;;;21.20;100546.00;;;;2062731;28;20229;-56
2021/09/24 01:55:29;;;;;;;6.17;5.20;;;;;21.20;100535.00;;;;2062598;28;20223;-56
2021/09/24 01:56:30;;;;;;;5.80;5.00;;;;;21.10;100533.00;;;;2063198;28;20620;-56
2021/09/24 01:57:30;;;;;;;5.80;4.57;;;;;21.20;100538.00;;;;2063251;28;20731;-56
2021/09/24 01:58:30;;;;;;;6.27;5.17;;;;;21.20;100541.00;;;;2063356;28;20214;-56
2021/09/24 01:59:31;;;;;;;5.47;4.77;;;;;21.20;100539.00;;;;2061747;28;20298;-56
2021/09/24 02:00:31;;;;;;;5.33;4.80;;;;;21.20;100546.00;;;;2063117;28;20207;-56
2021/09/24 02:01:31;;;;;;;5.63;5.00;;;;;21.20;100541.00;;;;2063095;28;20219;-55
2021/09/24 02:02:32;;;;;;;5.30;4.80;;;;;21.20;100539.00;;;;2063271;28;20222;-56
2021/09/24 02:03:32;;;;;;;5.90;5.40;;;;;21.20;100541.00;;;;2065941;28;20294;-56
2021/09/24 02:04:32;;;;;;;5.10;4.37;;;;;21.20;100544.00;;;;2071093;28;20218;-56
2021/09/24 02:05:33;;;;;;;5.67;4.60;;;;;21.10;100544.00;;;;2063563;28;20667;-56
2021/09/24 02:06:33;;;;;;;5.93;5.33;;;;;21.20;100533.00;;;;2062688;28;20206;-56
2021/09/24 02:07:34;;;;;;;4.37;3.93;;;;;21.20;100545.00;;;;2062560;28;20218;-56
2021/09/24 02:08:34;;;;;;;6.53;5.17;;;;;21.10;100541.00;;;;2062665;28;20633;-56
2021/09/24 02:09:34;;;;;;;5.80;4.23;;;;;21.10;100534.00;;;;2062010;28;20215;-56
2021/09/24 02:10:35;;;;;;;4.90;4.47;;;;;21.20;100528.00;;;;2063082;28;20207;-56
2021/09/24 02:11:35;;;;;;;5.00;4.60;;;;;21.20;100540.00;;;;2063010;28;20215;-56
2021/09/24 02:12:36;;;;;;;5.40;4.90;;;;;21.20;100538.00;;;;2063056;28;20703;-55
2021/09/24 02:13:38;;;;;;;5.27;4.07;;;;;21.20;100534.00;;;;2063401;28;20214;-55
2021/09/24 02:14:38;;;;;;;4.70;4.30;;;;;21.20;100530.00;;;;2063031;28;20218;-56
2021/09/24 02:15:39;;;;;;;4.50;4.07;;;;;21.10;100534.00;;;;2070499;28;20214;-55
2021/09/24 02:16:39;;;;;;;4.53;4.07;;;;;21.20;100540.00;;;;2071001;28;20292;-56
2021/09/24 02:17:39;;;;;;;6.83;5.47;;;;;21.20;100532.00;;;;2071373;28;20217;-55
2021/09/24 02:18:40;;;;;;;6.23;5.10;;;;;21.20;100536.00;;;;2071059;28;20214;-56
2021/09/24 02:19:40;;;;;;;5.90;4.90;;;;;21.10;100533.00;;;;2069775;28;20206;-56
2021/09/24 02:20:40;;;;;;;5.03;4.63;;;;;21.10;100543.00;;;;2070346;28;20207;-56
2021/09/24 02:21:41;;;;;;;4.50;4.10;;;;;21.10;100538.00;;;;2071207;28;20233;-56
2021/09/24 02:22:41;;;;;;;4.60;4.13;;;;;21.20;100538.00;;;;2071256;28;20206;-56
2021/09/24 02:23:42;;;;;;;5.27;4.77;;;;;21.20;100542.00;;;;2065763;28;20214;-56
2021/09/24 02:24:42;;;;;;;6.53;5.93;;;;;21.10;100547.00;;;;2062799;28;20214;-56
2021/09/24 02:25:42;;;;;;;5.70;5.20;;;;;21.10;100540.00;;;;2062678;28;20211;-56
2021/09/24 02:26:43;;;;;;;6.57;4.87;;;;;21.10;100544.00;;;;2062835;28;20640;-57
2021/09/24 02:27:43;;;;;;;5.63;5.13;;;;;21.20;100550.00;;;;2062370;28;20226;-57
2021/09/24 02:28:43;;;;;;;4.80;4.40;;;;;21.20;100549.00;;;;2067796;28;20225;-57
2021/09/24 02:29:44;;;;;;;4.60;4.20;;;;;21.20;100544.00;;;;2070548;28;20222;-56
2021/09/24 02:30:44;;;;;;;5.50;4.83;;;;;21.10;100542.00;;;;2071101;28;20309;-57
2021/09/24 02:31:44;;;;;;;5.10;4.60;;;;;21.10;100537.00;;;;2071090;28;20669;-56
2021/09/24 02:32:45;;;;;;;5.37;4.63;;;;;21.10;100541.00;;;;2071016;28;20268;-57
2021/09/24 02:33:45;;;;;;;7.40;4.80;;;;;21.10;100537.00;;;;2070811;28;20218;-57
2021/09/24 02:34:46;;;;;;;4.63;3.97;;;;;21.10;100541.00;;;;2066244;28;20218;-56
2021/09/24 02:35:46;;;;;;;4.40;4.00;;;;;21.20;100545.00;;;;2062518;28;20211;-57
2021/09/24 02:36:47;;;;;;;6.20;5.33;;;;;21.20;100541.00;;;;2063203;28;20713;-56
2021/09/24 02:37:47;;;;;;;4.40;4.00;;;;;21.20;100546.00;;;;2063133;28;20613;-56
2021/09/24 02:38:49;;;;;;;5.50;4.80;;;;;21.20;100543.00;;;;2062408;28;20229;-56
2021/09/24 02:39:49;;;;;;;5.65;4.78;;;;;21.20;100536.00;;;;2065913;28;20243;-56
2021/09/24 02:40:50;;;;;;;5.93;5.43;;;;;21.20;100544.00;;;;2062634;28;20213;-56
2021/09/24 02:41:50;;;;;;;5.17;4.73;;;;;21.20;100541.00;;;;2062837;28;20277;-56
2021/09/24 02:42:50;;;;;;;5.47;4.97;;;;;21.20;100542.00;;;;2061739;28;20226;-56
2021/09/24 02:43:51;;;;;;;5.80;5.20;;;;;21.20;100537.00;;;;2063073;28;20215;-56
2021/09/24 02:44:51;;;;;;;5.20;4.70;;;;;21.20;100545.00;;;;2062991;28;20250;-56
2021/09/24 02:45:51;;;;;;;4.80;4.20;;;;;21.20;100549.00;;;;2062220;28;20333;-56
2021/09/24 02:46:52;;;;;;;7.70;5.43;;;;;21.10;100547.00;;;;2061085;28;20211;-56
2021/09/24 02:47:52;;;;;;;4.80;4.30;;;;;21.20;100539.00;;;;2062007;28;20203;-55
2021/09/24 02:48:53;;;;;;;5.90;4.80;;;;;21.10;100543.00;;;;2061224;28;20317;-56
2021/09/24 02:49:53;;;;;;;6.00;5.40;;;;;21.10;100548.00;;;;2070241;28;20214;-56
2021/09/24 02:50:53;;;;;;;3.90;3.57;;;;;21.20;100539.00;;;;2071097;28;20206;-56
2021/09/24 02:51:54;;;;;;;7.47;6.70;;;;;21.10;100547.00;;;;2071064;28;20306;-56
2021/09/24 02:52:54;;;;;;;5.40;4.67;;;;;21.20;100553.00;;;;2071075;28;20210;-56
2021/09/24 02:53:54;;;;;;;5.53;5.00;;;;;21.20;100538.00;;;;2071024;28;20206;-56
2021/09/24 02:54:55;;;;;;;5.60;4.30;;;;;21.10;100539.00;;;;2069154;28;20676;-56
2021/09/24 02:55:55;;;;;;;5.93;5.33;;;;;21.10;100536.00;;;;2069940;28;20226;-56
2021/09/24 02:56:55;;;;;;;5.77;4.47;;;;;21.10;100541.00;;;;2066866;28;20238;-56
2021/09/24 02:57:56;;;;;;;4.70;4.30;;;;;21.10;100537.00;;;;2062837;28;20291;-56
2021/09/24 02:58:56;;;;;;;5.33;4.83;;;;;21.10;100536.00;;;;2061519;28;20215;-56
2021/09/24 02:59:56;;;;;;;6.93;4.87;;;;;21.10;100533.00;;;;2062591;28;20214;-56
2021/09/24 03:00:57;;;;;;;5.50;4.30;;;;;21.10;100530.00;;;;2063034;28;20218;-56
2021/09/24 03:01:58;;;;;;;6.43;5.20;;;;;21.10;100537.00;;;;2062537;28;20222;-56
2021/09/24 03:02:58;;;;;;;4.97;4.47;;;;;21.10;100530.00;;;;2062719;28;20568;-56
2021/09/24 03:03:58;;;;;;;4.90;4.50;;;;;21.20;100496.00;;;;2062420;28;20497;-56
2021/09/24 03:04:59;;;;;;;7.30;6.60;;;;;21.20;100533.00;;;;2062525;28;21370;-55
2021/09/24 03:05:59;;;;;;;5.40;4.90;;;;;21.10;100532.00;;;;2064233;28;21161;-56
2021/09/24 03:06:59;;;;;;;6.20;5.33;;;;;21.10;100534.00;;;;2062518;28;20211;-56
2021/09/24 03:08:00;;;;;;;6.90;6.20;;;;;21.10;100527.00;;;;2062783;28;20222;-56
2021/09/24 03:09:00;;;;;;;5.50;5.00;;;;;21.10;100539.00;;;;2061177;28;20246;-56
2021/09/24 03:10:00;;;;;;;7.23;6.10;;;;;21.10;100534.00;;;;2059627;28;20250;-56
2021/09/24 03:11:01;;;;;;;6.23;5.50;;;;;21.10;100529.00;;;;2064615;28;20215;-56
2021/09/24 03:12:02;;;;;;;8.33;6.43;;;;;21.10;100533.00;;;;2070999;28;20214;-56
2021/09/24 03:13:03;;;;;;;7.20;6.03;;;;;21.10;100527.00;;;;2070928;28;20218;-56
2021/09/24 03:14:03;;;;;;;4.73;4.33;;;;;21.20;100537.00;;;;2070750;28;20261;-56
2021/09/24 03:15:05;;;;;;;6.03;5.10;;;;;21.10;100528.00;;;;2062751;28;20207;-56
2021/09/24 03:16:05;;;;;;;5.75;5.25;;;;;21.10;100529.00;;;;2062269;28;20214;-56
2021/09/24 03:17:06;;;;;;;6.47;5.30;;;;;21.10;100526.00;;;;2062748;28;20222;-56
2021/09/24 03:18:06;;;;;;;8.03;7.23;;;;;21.20;100541.00;;;;2063952;28;20256;-56
2021/09/24 03:19:07;;;;;;;5.30;4.80;;;;;21.20;100541.00;;;;2069450;28;20222;-56
2021/09/24 03:20:08;;;;;;;8.63;7.20;;;;;21.10;100539.00;;;;2068531;28;20289;-56
2021/09/24 03:21:08;;;;;;;5.53;4.60;;;;;21.10;100538.00;;;;2062755;28;20225;-56
2021/09/24 03:22:08;;;;;;;6.13;5.40;;;;;21.10;100528.00;;;;2062673;28;20583;-56
2021/09/24 03:23:09;;;;;;;6.90;5.57;;;;;21.10;100531.00;;;;2061606;28;20215;-56
2021/09/24 03:24:09;;;;;;;5.90;5.30;;;;;21.10;100528.00;;;;2070274;28;20222;-56
2021/09/24 03:25:10;;;;;;;5.30;4.87;;;;;21.10;100529.00;;;;2070342;28;20222;-56
2021/09/24 03:26:11;;;;;;;5.90;5.40;;;;;21.10;100528.00;;;;2070485;28;20222;-56
2021/09/24 03:27:12;;;;;;;5.23;4.73;;;;;21.10;100532.00;;;;2070371;28;20325;-56
2021/09/24 03:28:12;;;;;;;6.40;5.80;;;;;21.10;100524.00;;;;2070241;28;20453;-56
2021/09/24 03:29:13;;;;;;;7.33;6.10;;;;;21.10;100528.00;;;;2069187;28;20234;-56
2021/09/24 03:30:13;;;;;;;7.00;6.37;;;;;21.10;100531.00;;;;2069983;28;20291;-56
2021/09/24 03:31:15;;;;;;;5.80;5.20;;;;;21.10;100530.00;;;;2070420;28;20244;-56
2021/09/24 03:32:21;;;;;;;6.80;5.95;;;;;21.10;100533.00;;;;2070503;28;20355;-56
2021/09/24 03:33:21;;;;;;;6.25;5.65;;;;;21.10;100533.00;;;;2070633;28;20241;-55
2021/09/24 03:34:22;;;;;;;10.23;9.13;;;;;21.10;100531.00;;;;2070284;28;20222;-56
2021/09/24 03:35:22;;;;;;;7.83;7.10;;;;;21.10;100529.00;;;;2070451;28;20679;-56
2021/09/24 03:36:22;;;;;;;9.63;5.67;;;;;21.10;100537.00;;;;2063268;28;20250;-56
2021/09/24 03:37:23;;;;;;;7.10;6.40;;;;;21.10;100532.00;;;;2062062;28;20214;-57
2021/09/24 03:38:23;;;;;;;5.83;5.33;;;;;21.10;100532.00;;;;2061765;28;20223;-58
2021/09/24 03:39:23;;;;;;;5.47;5.00;;;;;21.10;100536.00;;;;2061256;28;20230;-56
2021/09/24 03:40:24;;;;;;;7.60;6.80;;;;;21.10;100536.00;;;;2062784;28;20222;-56
2021/09/24 03:41:24;;;;;;;5.57;5.07;;;;;21.10;100534.00;;;;2069955;28;20637;-57
2021/09/24 03:42:25;;;;;;;6.13;5.53;;;;;21.10;100529.00;;;;2070023;28;20214;-57
2021/09/24 03:43:25;;;;;;;5.57;4.90;;;;;21.10;100532.00;;;;2069764;28;20220;-57
2021/09/24 03:44:25;;;;;;;6.40;5.80;;;;;21.10;100533.00;;;;2067705;28;20260;-56
2021/09/24 03:45:27;;;;;;;5.70;5.20;;;;;21.10;100535.00;;;;2062040;28;20230;-57
2021/09/24 03:46:27;;;;;;;7.10;6.45;;;;;21.10;100537.00;;;;2068873;28;20214;-56
2021/09/24 03:47:28;;;;;;;5.67;5.17;;;;;21.10;100541.00;;;;2061785;28;20859;-56
2021/09/24 03:48:28;;;;;;;5.47;4.97;;;;;21.10;100543.00;;;;2062008;28;20238;-56
2021/09/24 03:49:28;;;;;;;5.73;5.20;;;;;21.10;100527.00;;;;2061067;28;20265;-57
2021/09/24 03:50:29;;;;;;;6.90;6.30;;;;;21.10;100532.00;;;;2062535;28;20215;-57
2021/09/24 03:51:29;;;;;;;7.20;6.50;;;;;21.10;100532.00;;;;2062707;28;20579;-55
2021/09/24 03:52:30;;;;;;;5.73;5.23;;;;;21.10;100528.00;;;;2068808;28;20244;-56
2021/09/24 03:53:30;;;;;;;6.23;5.63;;;;;21.10;100536.00;;;;2070601;28;20289;-56
2021/09/24 03:54:30;;;;;;;5.77;5.27;;;;;21.10;100533.00;;;;2070949;28;20218;-57
2021/09/24 03:55:31;;;;;;;6.30;5.67;;;;;21.10;100535.00;;;;2070794;28;20210;-56
2021/09/24 03:56:31;;;;;;;7.23;6.53;;;;;21.10;100531.00;;;;2070315;28;20245;-57
2021/09/24 03:57:31;;;;;;;6.30;5.60;;;;;21.10;100544.00;;;;2069983;28;20264;-56
2021/09/24 03:58:32;;;;;;;8.50;7.67;;;;;21.10;100535.00;;;;2070560;28;20210;-56
2021/09/24 03:59:32;;;;;;;8.27;7.40;;;;;21.10;100539.00;;;;2069464;28;20221;-56
2021/09/24 04:00:32;;;;;;;5.33;4.83;;;;;21.10;100545.00;;;;2070544;28;20210;-56
2021/09/24 04:01:33;;;;;;;5.57;5.07;;;;;21.10;100548.00;;;;2070298;28;20577;-56
2021/09/24 04:02:33;;;;;;;7.93;7.13;;;;;21.10;100544.00;;;;2070341;28;20223;-56
2021/09/24 04:03:34;;;;;;;6.50;5.50;;;;;21.10;100532.00;;;;2070699;28;20920;-56
2021/09/24 04:04:34;;;;;;;6.63;5.87;;;;;21.10;100528.00;;;;2070493;28;20212;-56
2021/09/24 04:05:34;;;;;;;7.83;7.03;;;;;21.10;100535.00;;;;2061821;28;20301;-55
2021/09/24 04:06:35;;;;;;;6.60;5.90;;;;;21.10;100532.00;;;;2061785;28;20225;-56
2021/09/24 04:07:35;;;;;;;6.83;6.23;;;;;21.10;100547.00;;;;2062167;28;20199;-55
2021/09/24 04:08:36;;;;;;;6.30;5.70;;;;;21.10;100532.00;;;;2062554;28;20257;-55
2021/09/24 04:09:36;;;;;;;7.93;6.90;;;;;21.10;100536.00;;;;2061245;28;20219;-56
2021/09/24 04:10:37;;;;;;;7.77;5.63;;;;;21.10;100531.00;;;;2062336;28;20505;-54
2021/09/24 04:11:37;;;;;;;7.70;7.00;;;;;21.10;100541.00;;;;2062521;28;20207;-54
2021/09/24 04:12:38;;;;;;;6.83;6.20;;;;;21.10;100537.00;;;;2069801;28;20214;-56
2021/09/24 04:13:38;;;;;;;5.93;5.43;;;;;21.10;100536.00;;;;2068478;28;20206;-56
2021/09/24 04:14:38;;;;;;;6.47;5.87;;;;;21.10;100538.00;;;;2059102;28;20654;-56
2021/09/24 04:15:39;;;;;;;6.00;5.40;;;;;21.10;100543.00;;;;2068700;28;20313;-55
2021/09/24 04:16:39;;;;;;;5.30;4.87;;;;;21.10;100537.00;;;;2062295;28;20206;-56
2021/09/24 04:17:40;;;;;;;7.33;6.53;;;;;21.10;100536.00;;;;2062023;28;20211;-56
2021/09/24 04:18:40;;;;;;;7.03;6.00;;;;;21.10;100533.00;;;;2062405;28;20222;-56
2021/09/24 04:19:40;;;;;;;6.57;5.97;;;;;21.10;100544.00;;;;2064672;28;21127;-56
2021/09/24 04:20:41;;;;;;;6.60;5.90;;;;;21.10;100541.00;;;;2070381;28;20210;-56
2021/09/24 04:21:41;;;;;;;5.73;5.20;;;;;21.10;100540.00;;;;2070365;28;20240;-56
2021/09/24 04:22:41;;;;;;;7.60;6.90;;;;;21.10;100544.00;;;;2066347;28;20675;-55
2021/09/24 04:23:42;;;;;;;7.47;6.77;;;;;21.10;100540.00;;;;2062056;28;20577;-55
2021/09/24 04:24:42;;;;;;;6.10;5.50;;;;;21.10;100542.00;;;;2068069;28;20210;-56
2021/09/24 04:25:43;;;;;;;8.23;6.83;;;;;21.10;100534.00;;;;2061185;28;20219;-56
2021/09/24 04:26:44;;;;;;;6.20;5.47;;;;;21.10;100540.00;;;;2062080;28;20219;-56
2021/09/24 04:27:44;;;;;;;6.18;5.57;;;;;21.10;100541.00;;;;2062532;28;20218;-56
2021/09/24 04:28:45;;;;;;;9.53;8.40;;;;;21.10;100535.00;;;;2060881;28;20294;-56
2021/09/24 04:29:45;;;;;;;7.30;6.60;;;;;21.10;100532.00;;;;2061955;28;20334;-56
2021/09/24 04:30:45;;;;;;;5.23;4.77;;;;;21.10;100540.00;;;;2061812;28;20206;-56
2021/09/24 04:31:46;;;;;;;8.90;6.57;;;;;21.10;100531.00;;;;2062070;28;20306;-56
2021/09/24 04:32:47;;;;;;;6.47;5.87;;;;;21.10;100537.00;;;;2062349;28;20687;-56
2021/09/24 04:33:48;;;;;;;8.65;7.85;;;;;21.10;100533.00;;;;2061322;28;20587;-56
2021/09/24 04:34:48;;;;;;;6.50;5.90;;;;;21.10;100539.00;;;;2062477;28;20297;-56
2021/09/24 04:35:49;;;;;;;8.10;7.20;;;;;21.10;100539.00;;;;2061988;28;20567;-56
2021/09/24 04:36:49;;;;;;;6.80;6.20;;;;;21.10;100540.00;;;;2062268;28;20273;-56
2021/09/24 04:37:50;;;;;;;7.60;6.83;;;;;21.10;100538.00;;;;2062299;28;20226;-56
2021/09/24 04:38:51;;;;;;;8.85;7.90;;;;;21.10;100532.00;;;;2061065;28;20227;-56
2021/09/24 04:39:51;;;;;;;5.87;5.37;;;;;21.10;100532.00;;;;2063792;28;20222;-56
2021/09/24 04:40:51;;;;;;;6.60;6.00;;;;;21.10;100534.00;;;;2063609;28;20226;-56
2021/09/24 04:41:52;;;;;;;6.07;5.47;;;;;21.10;100535.00;;;;2063964;28;20843;-56
2021/09/24 04:42:52;;;;;;;6.43;5.83;;;;;21.10;100537.00;;;;2063912;28;20219;-56
2021/09/24 04:43:52;;;;;;;7.53;6.37;;;;;21.10;100536.00;;;;2063797;28;20222;-56
2021/09/24 04:44:53;;;;;;;8.77;7.90;;;;;21.10;100533.00;;;;2063732;28;20211;-56
2021/09/24 04:45:53;;;;;;;7.77;6.53;;;;;21.10;100530.00;;;;2063698;28;20218;-56
2021/09/24 04:46:53;;;;;;;6.67;6.07;;;;;21.10;100532.00;;;;2063844;28;20272;-55
2021/09/24 04:47:54;;;;;;;8.47;7.27;;;;;21.10;100529.00;;;;2063897;28;20219;-55
2021/09/24 04:48:54;;;;;;;6.40;5.80;;;;;21.10;100542.00;;;;2061633;28;20234;-56
2021/09/24 04:49:54;;;;;;;9.03;7.93;;;;;21.10;100532.00;;;;2063583;28;20219;-56
2021/09/24 04:50:55;;;;;;;7.20;6.03;;;;;21.10;100523.00;;;;2063523;28;20643;-56
2021/09/24 04:51:55;;;;;;;7.30;6.70;;;;;21.10;100533.00;;;;2063745;28;20219;-56
2021/09/24 04:52:55;;;;;;;8.10;7.27;;;;;21.10;100532.00;;;;2063917;28;20234;-56
2021/09/24 04:53:56;;;;;;;7.53;6.83;;;;;21.10;100527.00;;;;2063729;28;20227;-56
2021/09/24 04:54:56;;;;;;;9.80;8.03;;;;;21.10;100528.00;;;;2063683;28;20225;-56
2021/09/24 04:55:56;;;;;;;11.30;8.30;;;;;21.10;100524.00;;;;2063654;28;20641;-56
2021/09/24 04:56:57;;;;;;;7.50;6.90;;;;;21.10;100523.00;;;;2063859;28;20223;-56
2021/09/24 04:57:57;;;;;;;8.13;7.33;;;;;21.10;100521.00;;;;2063845;28;20219;-56
2021/09/24 04:58:58;;;;;;;8.43;7.53;;;;;21.10;100533.00;;;;2059444;28;20754;-56